Home   Weather   44°06'N, 103°17'W   Past weeks
Flag for USA

Past Weather in 44°06'N, 103°17'W, USA — Yesterday and Last 2 Weeks

Currently: 69 °F. Clear. (Weather station: Ellsworth Air Force Base, USA). See more current weather

Past Weather in 44°06'N, 103°17'W — Graph

°F

44°06'N, 103°17'W Temperature Yesterday

Maximum temperature yesterday: 90 °F (at 11:56 am)
Minimum temperature yesterday: 68 °F (at 5:56 am)
Average temperature yesterday: 79 °F

High & Low Weather Summary for the Past Weeks

 TemperatureHumidityPressure
High96 °F (Jul 22, 4:56 pm)94% (Jul 9, 4:20 am)30.19 "Hg (Jul 9, 4:20 am)
Low58 °F (Jul 14, 2:56 am)20% (Jul 12, 2:56 pm)29.81 "Hg (Jul 16, 4:56 am)
Average76 °F56%29.98 "Hg
* Reported Jul 8 11:56 pm — Jul 23 11:56 pm, 44°06'N, 103°17'W. Weather by CustomWeather, © 2021

Note: Actual official high and low records may vary slightly from our data, if they occured in-between our weather recording intervals... More about our weather records

44°06'N, 103°17'W Weather History for the Previous 24 Hours

Scroll right to see more
 ConditionsComfort  
Time TempWeatherWind HumidityBarometerVisibility
11:56 pm
Fri, Jul 23
77 °FClear.10 mph57%29.94 "Hg10 mi
10:56 pm80 °FClear.10 mph50%29.93 "Hg10 mi
9:56 pm77 °FClear.13 mph57%29.93 "Hg10 mi
8:56 pm80 °FClear.6 mph56%29.92 "Hg10 mi
7:56 pm82 °FClear.7 mph53%29.90 "Hg10 mi
6:56 pm85 °FSunny.5 mph46%29.89 "Hg10 mi
5:56 pm89 °FSunny.6 mph37%29.89 "Hg10 mi
4:56 pm89 °FScattered clouds.3 mph38%29.91 "Hg10 mi
3:56 pm87 °FScattered clouds.5 mph44%29.93 "Hg10 mi
2:56 pm86 °FPassing clouds.7 mph47%29.93 "Hg10 mi
1:57 pm81 °FScattered clouds.15 mph58%29.94 "Hg10 mi
12:56 pm86 °FPartly sunny.17 mph52%29.93 "Hg10 mi
11:56 am90 °FPartly sunny.9 mph37%29.92 "Hg10 mi
10:56 am87 °FPartly sunny.3 mph43%29.92 "Hg10 mi
9:56 am85 °FSunny.3 mph49%29.92 "Hg10 mi
8:56 am80 °FSunny.7 mph59%29.93 "Hg10 mi
7:56 am75 °FSunny.6 mph71%29.93 "Hg10 mi
6:56 am71 °FSunny.6 mph79%29.94 "Hg10 mi
5:56 am68 °FPartly sunny.6 mph85%29.92 "Hg10 mi
4:56 am69 °FSunny.6 mph85%29.89 "Hg10 mi
3:56 am68 °FClear.6 mph85%29.90 "Hg10 mi
2:56 am69 °FPassing clouds.7 mph87%29.90 "Hg10 mi
Weather by CustomWeather, © 2021

See weather overview